createdAt,value
2022-08-17T00:02:01.454Z,99582.28
2022-08-17T00:04:34.053Z,99580.28
2022-08-17T00:07:00.432Z,99569.75
2022-08-17T00:09:26.901Z,99565.81
2022-08-17T00:12:41.080Z,99565.06
2022-08-17T00:14:39.907Z,99570.31
2022-08-17T00:17:06.955Z,99562.13
2022-08-17T00:19:34.009Z,99564.72
2022-08-17T00:22:32.784Z,99569.63
2022-08-17T00:24:49.647Z,99573.41
2022-08-17T00:27:16.050Z,99572.09
2022-08-17T00:29:42.536Z,99571.72
2022-08-17T00:33:14.906Z,99572.06
2022-08-17T00:34:55.381Z,99585.94
2022-08-17T00:37:21.837Z,99576.72
2022-08-17T00:39:48.286Z,99566.78
2022-08-17T00:42:17.138Z,99571.94
2022-08-17T00:44:45.198Z,99576.34
2022-08-17T00:47:11.649Z,99570.22
2022-08-17T00:49:38.059Z,99567.66
2022-08-17T00:52:15.331Z,99569.97
2022-08-17T00:54:44.940Z,99561.63
2022-08-17T00:57:18.360Z,99551.56
2022-08-17T01:00:01.617Z,99551.47
2022-08-17T01:02:52.186Z,99549.47
2022-08-17T01:05:23.697Z,99554.34
2022-08-17T01:07:53.506Z,99553.44
2022-08-17T01:10:59.305Z,99561.91
2022-08-17T01:13:12.091Z,99561.19
2022-08-17T01:15:41.384Z,99558.03
2022-08-17T01:18:14.182Z,99555.38
2022-08-17T01:20:53.591Z,99545.22
2022-08-17T01:23:23.709Z,99549.34
2022-08-17T01:25:52.502Z,99544.56
2022-08-17T01:28:52.716Z,99553.31
2022-08-17T01:31:09.091Z,99550.69
2022-08-17T01:33:35.810Z,99549.31
2022-08-17T01:36:03.534Z,99558.50
2022-08-17T01:38:31.811Z,99561.13
2022-08-17T01:41:06.507Z,99560.66
2022-08-17T01:43:39.567Z,99560.38
2022-08-17T01:46:06.365Z,99553.75
2022-08-17T01:48:35.537Z,99562.28
2022-08-17T01:51:02.587Z,99561.78
2022-08-17T01:53:34.827Z,99564.84
2022-08-17T01:56:14.120Z,99565.22
2022-08-17T01:58:42.225Z,99564.16
2022-08-17T02:01:10.556Z,99566.03
2022-08-17T02:03:38.263Z,99560.19
2022-08-17T02:06:26.992Z,99559.06
2022-08-17T02:09:01.577Z,99557.03
2022-08-17T02:11:29.957Z,99564.84
2022-08-17T02:14:01.033Z,99560.41
2022-08-17T02:16:37.376Z,99552.44
2022-08-17T02:19:13.808Z,99556.72
2022-08-17T02:21:42.102Z,99558.59
2022-08-17T02:24:11.585Z,99560.69
2022-08-17T02:26:38.114Z,99565.41
2022-08-17T02:29:04.849Z,99566.81
2022-08-17T02:31:31.551Z,99574.78
2022-08-17T02:34:04.771Z,99570.47
2022-08-17T02:36:34.124Z,99569.63
2022-08-17T02:39:06.198Z,99567.00
2022-08-17T02:41:32.895Z,99560.59
2022-08-17T02:43:59.293Z,99564.25
2022-08-17T02:46:26.450Z,99564.78
2022-08-17T02:48:52.882Z,99557.03
2022-08-17T02:51:19.424Z,99569.25
2022-08-17T02:53:46.836Z,99578.25
2022-08-17T02:56:13.309Z,99570.50
2022-08-17T02:58:39.837Z,99568.22
2022-08-17T03:01:08.421Z,99576.41
2022-08-17T03:03:35.843Z,99577.69
2022-08-17T03:06:02.777Z,99578.59
2022-08-17T03:08:29.711Z,99588.06
2022-08-17T03:10:56.658Z,99584.09
2022-08-17T03:13:23.251Z,99577.63
2022-08-17T03:15:50.611Z,99581.28
2022-08-17T03:18:24.616Z,99569.69
2022-08-17T03:20:58.005Z,99566.63
2022-08-17T03:23:25.791Z,99561.63
2022-08-17T03:25:53.830Z,99560.81
2022-08-17T03:28:21.938Z,99556.34
2022-08-17T03:30:48.687Z,99559.53
2022-08-17T03:33:16.165Z,99559.34
2022-08-17T03:35:42.740Z,99564.88
2022-08-17T03:38:11.278Z,99564.13
2022-08-17T03:40:56.853Z,99557.63
2022-08-17T03:43:28.796Z,99558.25
2022-08-17T03:46:28.401Z,99556.84
2022-08-17T03:49:18.680Z,99555.44
2022-08-17T03:52:03.372Z,99555.44
2022-08-17T03:54:48.136Z,99551.88
2022-08-17T03:57:14.707Z,99560.19
2022-08-17T03:59:41.181Z,99560.25
2022-08-17T04:02:18.890Z,99559.47
2022-08-17T04:04:45.359Z,99563.44
2022-08-17T04:07:11.911Z,99578.38
2022-08-17T04:09:38.350Z,99570.91
2022-08-17T04:12:05.725Z,99579.59
2022-08-17T04:14:53.146Z,99580.75
2022-08-17T04:17:23.481Z,99583.78
2022-08-17T04:19:50.063Z,99587.22
2022-08-17T04:22:33.264Z,99588.50
2022-08-17T04:25:19.905Z,99585.88
2022-08-17T04:27:46.306Z,99584.84
2022-08-17T04:30:12.997Z,99582.50
2022-08-17T04:33:07.346Z,99587.38
2022-08-17T04:35:42.842Z,99591.94
2022-08-17T04:38:12.379Z,99594.50
2022-08-17T04:40:58.162Z,99601.72
2022-08-17T04:43:27.103Z,99620.78
2022-08-17T04:46:00.303Z,99631.09
2022-08-17T04:48:36.652Z,99618.13
2022-08-17T04:51:22.389Z,99624.47
2022-08-17T04:53:54.187Z,99623.13
2022-08-17T04:56:21.658Z,99618.13
2022-08-17T04:58:51.034Z,99640.63
2022-08-17T05:01:24.071Z,99635.91
2022-08-17T05:03:52.714Z,99633.41
2022-08-17T05:06:19.259Z,99638.53
2022-08-17T05:08:45.685Z,99633.63
2022-08-17T05:11:12.082Z,99633.03
2022-08-17T05:13:38.745Z,99611.78
2022-08-17T05:16:05.485Z,99618.78
2022-08-17T05:18:32.709Z,99599.91
2022-08-17T05:20:59.205Z,99590.66
2022-08-17T05:23:27.614Z,99590.50
2022-08-17T05:26:09.673Z,99589.69
2022-08-17T05:28:38.915Z,99593.53
2022-08-17T05:31:06.658Z,99583.34
2022-08-17T05:33:39.563Z,99587.41
2022-08-17T05:36:11.477Z,99581.50
2022-08-17T05:38:58.695Z,99573.19
2022-08-17T05:41:25.130Z,99571.25
2022-08-17T05:43:56.046Z,99568.75
2022-08-17T05:46:26.705Z,99569.94
2022-08-17T05:48:57.789Z,99569.06
2022-08-17T05:51:50.195Z,99564.75
2022-08-17T05:54:31.712Z,99571.44
2022-08-17T05:57:06.214Z,99561.06
2022-08-17T05:59:42.370Z,99575.38
2022-08-17T06:02:20.921Z,99574.19
2022-08-17T06:04:53.158Z,99574.47
2022-08-17T06:07:25.760Z,99583.56
2022-08-17T06:10:19.704Z,99596.19
2022-08-17T06:12:49.359Z,99603.06
2022-08-17T06:15:15.821Z,99602.13
2022-08-17T06:17:43.387Z,99602.28
2022-08-17T06:20:13.456Z,99594.72
2022-08-17T06:22:53.517Z,99581.78
2022-08-17T06:25:35.035Z,99592.03
2022-08-17T06:28:14.725Z,99593.81
2022-08-17T06:30:59.809Z,99583.38
2022-08-17T06:33:35.292Z,99575.88
2022-08-17T06:36:34.034Z,99569.06
2022-08-17T06:39:24.487Z,99562.53
2022-08-17T06:42:54.959Z,99559.78
2022-08-17T06:45:05.913Z,99561.13
2022-08-17T06:47:36.036Z,99570.69
2022-08-17T06:50:14.594Z,99583.56
2022-08-17T06:53:05.587Z,99589.72
2022-08-17T06:55:56.542Z,99582.84
2022-08-17T06:58:29.778Z,99572.34
2022-08-17T07:00:59.552Z,99585.88
2022-08-17T07:03:37.534Z,99580.91
2022-08-17T07:06:12.824Z,99604.69
2022-08-17T07:08:51.178Z,99614.53
2022-08-17T07:11:27.433Z,99615.53
2022-08-17T07:14:01.249Z,99623.09
2022-08-17T07:16:41.130Z,99615.53
2022-08-17T07:19:10.915Z,99617.66
2022-08-17T07:22:02.796Z,99635.16
2022-08-17T07:24:47.236Z,99631.28
2022-08-17T07:27:32.322Z,99610.56
2022-08-17T07:30:11.276Z,99606.81
2022-08-17T07:32:48.224Z,99594.50
2022-08-17T07:35:21.013Z,99591.22
2022-08-17T07:37:52.975Z,99588.38
2022-08-17T07:40:29.967Z,99596.31
2022-08-17T07:43:11.538Z,99613.00
2022-08-17T07:46:17.959Z,99632.06
2022-08-17T07:48:49.587Z,99638.81
2022-08-17T07:51:36.516Z,99635.16
2022-08-17T07:54:27.136Z,99662.06
2022-08-17T07:57:13.048Z,99663.25
2022-08-17T08:00:01.422Z,99683.13
2022-08-17T08:02:38.634Z,99680.03
2022-08-17T08:05:46.671Z,99684.72
2022-08-17T08:08:23.496Z,99678.78
2022-08-17T08:11:03.782Z,99666.09
2022-08-17T08:13:32.304Z,99671.66
2022-08-17T08:16:16.784Z,99670.34
2022-08-17T08:18:55.446Z,99665.97
2022-08-17T08:21:48.893Z,99669.66
2022-08-17T08:24:37.019Z,99659.72
2022-08-17T08:27:14.003Z,99663.38
2022-08-17T08:30:14.314Z,99661.81
2022-08-17T08:32:45.393Z,99662.53
2022-08-17T08:35:26.709Z,99668.69
2022-08-17T08:38:20.022Z,99675.94
2022-08-17T08:41:01.323Z,99675.41
2022-08-17T08:43:36.408Z,99670.28
2022-08-17T08:46:21.105Z,99667.91
2022-08-17T08:49:12.406Z,99651.28
2022-08-17T08:51:55.520Z,99655.84
2022-08-17T08:54:37.099Z,99663.72
2022-08-17T08:57:24.169Z,99658.16
2022-08-17T09:00:18.877Z,99659.19
2022-08-17T09:03:14.346Z,99670.03
2022-08-17T09:06:32.043Z,99687.16
2022-08-17T09:09:09.493Z,99686.09
2022-08-17T09:12:02.320Z,99693.88
2022-08-17T09:14:43.141Z,99693.47
2022-08-17T09:17:38.859Z,99711.97
2022-08-17T09:20:27.716Z,99720.81
2022-08-17T09:23:14.786Z,99715.91
2022-08-17T09:25:50.381Z,99709.19
2022-08-17T09:28:28.451Z,99710.47
2022-08-17T09:31:02.441Z,99707.72
2022-08-17T09:33:34.725Z,99701.06
2022-08-17T09:36:18.683Z,99694.94
2022-08-17T09:39:03.392Z,99690.13
2022-08-17T09:41:48.565Z,99683.16
2022-08-17T09:44:27.937Z,99689.00
2022-08-17T09:47:00.842Z,99700.09
2022-08-17T09:49:49.132Z,99710.41
2022-08-17T09:52:25.047Z,99707.81
2022-08-17T09:54:54.458Z,99698.59
2022-08-17T09:57:43.723Z,99696.75
2022-08-17T10:00:19.911Z,99691.16
2022-08-17T10:03:00.436Z,99683.16
2022-08-17T10:06:07.718Z,99691.78
2022-08-17T10:08:57.558Z,99688.22
2022-08-17T10:12:06.349Z,99678.25
2022-08-17T10:14:44.396Z,99680.69
2022-08-17T10:17:34.099Z,99671.84
2022-08-17T10:20:06.464Z,99667.78
2022-08-17T10:23:05.868Z,99662.19
2022-08-17T10:25:55.524Z,99662.97
2022-08-17T10:28:29.840Z,99665.75
2022-08-17T10:31:33.286Z,99658.50
2022-08-17T10:34:09.285Z,99655.38
2022-08-17T10:36:55.283Z,99673.47
2022-08-17T10:39:51.892Z,99679.31
2022-08-17T10:42:46.947Z,99689.84
2022-08-17T10:45:36.357Z,99697.00
2022-08-17T10:48:06.847Z,99710.81
2022-08-17T10:50:49.360Z,99714.59
2022-08-17T10:53:49.315Z,99704.19
2022-08-17T10:56:17.361Z,99694.34
2022-08-17T10:58:53.918Z,99698.31
2022-08-17T11:01:32.354Z,99699.75
2022-08-17T11:04:07.769Z,99695.97
2022-08-17T11:06:52.199Z,99691.63
2022-08-17T11:09:52.730Z,99678.47
2022-08-17T11:12:48.957Z,99674.88
2022-08-17T11:15:50.511Z,99681.91
2022-08-17T11:18:48.025Z,99680.19
2022-08-17T11:21:38.495Z,99680.50
2022-08-17T11:24:40.418Z,99685.97
2022-08-17T11:27:28.274Z,99685.63
2022-08-17T11:30:02.436Z,99681.53
2022-08-17T11:32:54.821Z,99685.13
2022-08-17T11:35:21.683Z,99677.28
2022-08-17T11:38:16.279Z,99675.06
2022-08-17T11:41:09.891Z,99678.56
2022-08-17T11:44:11.349Z,99681.63
2022-08-17T11:47:23.098Z,99682.22
2022-08-17T11:50:37.390Z,99683.94
2022-08-17T11:53:04.987Z,99677.63
2022-08-17T11:55:35.746Z,99689.41
2022-08-17T11:58:37.288Z,99685.31
2022-08-17T12:01:33.160Z,99681.53
2022-08-17T12:04:35.891Z,99675.94
2022-08-17T12:07:30.041Z,99680.88
2022-08-17T12:09:57.355Z,99677.47
2022-08-17T12:12:33.315Z,99677.09
2022-08-17T12:15:16.700Z,99678.81
2022-08-17T12:17:53.364Z,99673.69
2022-08-17T12:20:32.211Z,99675.44
2022-08-17T12:23:14.184Z,99678.38
2022-08-17T12:25:40.551Z,99680.59
2022-08-17T12:28:23.779Z,99682.16
2022-08-17T12:30:51.995Z,99673.50
2022-08-17T12:33:25.411Z,99669.25
2022-08-17T12:36:04.107Z,99657.28
2022-08-17T12:38:34.501Z,99670.69
2022-08-17T12:41:25.540Z,99665.75
2022-08-17T12:44:27.393Z,99655.19
2022-08-17T12:47:19.459Z,99660.78
2022-08-17T12:49:53.345Z,99654.72
2022-08-17T12:52:19.728Z,99656.97
2022-08-17T12:54:57.197Z,99650.47
2022-08-17T12:57:32.752Z,99652.38
2022-08-17T13:00:07.548Z,99643.00
2022-08-17T13:02:53.669Z,99642.81
2022-08-17T13:05:35.983Z,99641.59
2022-08-17T13:08:28.199Z,99639.34
2022-08-17T13:11:01.217Z,99636.31
2022-08-17T13:13:32.451Z,99635.75
2022-08-17T13:16:05.555Z,99640.25
2022-08-17T13:18:47.951Z,99625.28
2022-08-17T13:21:22.291Z,99617.94
2022-08-17T13:24:01.810Z,99626.91
2022-08-17T13:27:07.824Z,99612.06
2022-08-17T13:29:38.968Z,99618.13
2022-08-17T13:32:13.444Z,99614.56
2022-08-17T13:35:12.836Z,99616.66
2022-08-17T13:37:36.610Z,99621.56
2022-08-17T13:40:22.959Z,99611.94
2022-08-17T13:42:54.063Z,99604.25
2022-08-17T13:45:35.601Z,99592.13
2022-08-17T13:48:11.966Z,99600.94
2022-08-17T13:51:12.668Z,99597.81
2022-08-17T13:53:40.133Z,99592.81
2022-08-17T13:56:37.968Z,99601.34
2022-08-17T13:59:02.659Z,99597.63
2022-08-17T14:01:40.020Z,99593.66
2022-08-17T14:04:09.862Z,99577.81
2022-08-17T14:07:08.365Z,99580.41
2022-08-17T14:09:51.777Z,99583.91
2022-08-17T14:12:21.656Z,99565.06
2022-08-17T14:14:49.508Z,99576.72
2022-08-17T14:17:15.972Z,99573.88
2022-08-17T14:19:42.525Z,99572.78
2022-08-17T14:22:18.755Z,99579.31
2022-08-17T14:24:45.728Z,99577.53
2022-08-17T14:27:12.333Z,99572.00
2022-08-17T14:29:41.022Z,99569.59
2022-08-17T14:32:17.046Z,99566.34
2022-08-17T14:34:44.513Z,99568.00
2022-08-17T14:37:11.096Z,99557.78
2022-08-17T14:39:37.910Z,99554.44
2022-08-17T14:42:04.419Z,99554.56
2022-08-17T14:44:30.874Z,99556.06
2022-08-17T14:46:57.270Z,99559.16
2022-08-17T14:49:25.864Z,99562.97
2022-08-17T14:51:52.794Z,99554.94
2022-08-17T14:54:32.642Z,99544.38
2022-08-17T14:57:23.804Z,99545.34
2022-08-17T14:59:51.714Z,99545.34
2022-08-17T15:02:23.071Z,99534.88
2022-08-17T15:05:03.620Z,99532.16
2022-08-17T15:07:30.901Z,99537.31
2022-08-17T15:09:58.828Z,99542.47
2022-08-17T15:12:32.250Z,99529.81
2022-08-17T15:15:00.796Z,99531.34
2022-08-17T15:17:27.445Z,99533.41
2022-08-17T15:20:15.720Z,99536.84
2022-08-17T15:22:43.998Z,99541.97
2022-08-17T15:25:11.543Z,99543.69
2022-08-17T15:27:38.025Z,99549.53
2022-08-17T15:30:07.174Z,99536.75
2022-08-17T15:32:38.002Z,99544.13
2022-08-17T15:35:06.247Z,99550.19
2022-08-17T15:37:33.344Z,99548.50
2022-08-17T15:40:02.999Z,99542.06
2022-08-17T15:42:29.559Z,99541.97
2022-08-17T15:44:56.233Z,99543.03
2022-08-17T15:47:23.287Z,99545.28
2022-08-17T15:49:50.647Z,99530.56
2022-08-17T15:52:25.884Z,99527.41
2022-08-17T15:54:55.328Z,99522.41
2022-08-17T15:57:23.949Z,99525.91
2022-08-17T15:59:55.140Z,99531.34
2022-08-17T16:03:45.925Z,99531.78
2022-08-17T16:05:20.853Z,99528.41
2022-08-17T16:07:48.948Z,99527.13
2022-08-17T16:10:19.096Z,99532.56
2022-08-17T16:12:47.763Z,99529.31
2022-08-17T16:15:14.890Z,99522.84
2022-08-17T16:17:41.500Z,99531.19
2022-08-17T16:20:09.971Z,99539.81
2022-08-17T16:22:47.350Z,99537.06
2022-08-17T16:25:18.701Z,99535.94
2022-08-17T16:27:46.517Z,99543.84
2022-08-17T16:30:17.649Z,99543.13
2022-08-17T16:32:44.501Z,99540.84
2022-08-17T16:35:14.280Z,99544.25
2022-08-17T16:37:45.465Z,99543.47
2022-08-17T16:40:13.728Z,99540.56
2022-08-17T16:42:40.272Z,99543.59
2022-08-17T16:45:13.805Z,99546.53
2022-08-17T16:47:41.815Z,99538.78
2022-08-17T16:50:11.655Z,99543.19
2022-08-17T16:52:38.653Z,99538.66
2022-08-17T16:55:07.739Z,99547.94
2022-08-17T16:57:37.275Z,99542.81
2022-08-17T17:00:15.741Z,99550.50
2022-08-17T17:02:49.370Z,99552.78
2022-08-17T17:05:43.327Z,99545.19
2022-08-17T17:08:13.595Z,99539.53
2022-08-17T17:10:47.153Z,99531.50
2022-08-17T17:13:40.595Z,99528.34
2022-08-17T17:16:44.956Z,99523.81
2022-08-17T17:19:35.380Z,99535.75
2022-08-17T17:22:37.538Z,99539.31
2022-08-17T17:25:12.913Z,99540.22
2022-08-17T17:27:58.805Z,99532.91
2022-08-17T17:30:47.470Z,99537.06
2022-08-17T17:33:24.596Z,99539.16
2022-08-17T17:35:58.542Z,99541.22
2022-08-17T17:38:31.368Z,99538.53
2022-08-17T17:41:08.553Z,99533.34
2022-08-17T17:43:40.085Z,99538.75
2022-08-17T17:46:27.183Z,99534.13
2022-08-17T17:48:59.118Z,99524.75
2022-08-17T17:52:03.588Z,99518.41
2022-08-17T17:54:43.177Z,99525.97
2022-08-17T17:57:29.092Z,99525.97
2022-08-17T18:00:14.170Z,99529.38
2022-08-17T18:02:53.273Z,99537.69
2022-08-17T18:05:28.728Z,99533.88
2022-08-17T18:08:11.014Z,99533.34
2022-08-17T18:11:09.458Z,99532.31
2022-08-17T18:14:20.564Z,99539.47
2022-08-17T18:16:55.153Z,99535.03
2022-08-17T18:19:24.986Z,99537.59
2022-08-17T18:22:01.453Z,99547.53
2022-08-17T18:24:33.677Z,99541.75
2022-08-17T18:27:08.632Z,99540.41
2022-08-17T18:29:49.465Z,99537.03
2022-08-17T18:32:35.712Z,99540.06
2022-08-17T18:35:27.709Z,99544.56
2022-08-17T18:38:20.323Z,99551.06
2022-08-17T18:41:00.745Z,99552.41
2022-08-17T18:43:52.976Z,99560.78
2022-08-17T18:46:28.601Z,99559.78
2022-08-17T18:49:02.566Z,99568.13
2022-08-17T18:51:40.573Z,99566.78
2022-08-17T18:54:25.295Z,99562.72
2022-08-17T18:56:57.755Z,99576.84
2022-08-17T18:59:29.434Z,99582.13
2022-08-17T19:02:15.523Z,99585.16
2022-08-17T19:05:10.298Z,99596.84
2022-08-17T19:07:45.707Z,99593.69
2022-08-17T19:10:28.127Z,99603.44
2022-08-17T19:13:12.765Z,99607.78
2022-08-17T19:16:12.237Z,99604.44
2022-08-17T19:18:43.878Z,99606.53
2022-08-17T19:21:14.730Z,99607.84
2022-08-17T19:23:53.727Z,99617.94
2022-08-17T19:26:54.502Z,99626.75
2022-08-17T19:29:34.398Z,99633.47
2022-08-17T19:32:01.601Z,99629.72
2022-08-17T19:34:34.011Z,99624.09
2022-08-17T19:37:12.449Z,99622.28
2022-08-17T19:40:02.016Z,99615.91
2022-08-17T19:42:47.602Z,99621.41
2022-08-17T19:45:21.168Z,99619.16
2022-08-17T19:48:25.099Z,99625.13
2022-08-17T19:51:17.761Z,99625.97
2022-08-17T19:54:05.879Z,99621.13
2022-08-17T19:57:08.247Z,99626.94
2022-08-17T20:00:05.545Z,99621.22
2022-08-17T20:02:46.626Z,99627.75
2022-08-17T20:06:11.008Z,99630.03
2022-08-17T20:08:38.961Z,99632.22
2022-08-17T20:11:26.167Z,99629.56
2022-08-17T20:14:00.808Z,99630.75
2022-08-17T20:16:27.509Z,99629.84
2022-08-17T20:19:04.798Z,99643.84
2022-08-17T20:21:37.153Z,99641.72
2022-08-17T20:24:21.858Z,99644.88
2022-08-17T20:27:12.508Z,99646.03
2022-08-17T20:30:00.253Z,99636.91
2022-08-17T20:32:35.367Z,99649.56
2022-08-17T20:35:26.515Z,99640.38
2022-08-17T20:38:01.887Z,99636.56
2022-08-17T20:40:39.528Z,99640.53
2022-08-17T20:43:45.674Z,99637.56
2022-08-17T20:46:20.899Z,99632.25
2022-08-17T20:48:52.849Z,99635.09
2022-08-17T20:51:39.361Z,99647.81
2022-08-17T20:54:17.871Z,99642.13
2022-08-17T20:56:44.261Z,99642.22
2022-08-17T20:59:25.769Z,99659.09
2022-08-17T21:02:18.117Z,99656.53
2022-08-17T21:04:52.772Z,99660.84
2022-08-17T21:07:42.961Z,99659.31
2022-08-17T21:10:21.401Z,99668.25
2022-08-17T21:12:59.254Z,99669.81
2022-08-17T21:15:43.696Z,99678.16
2022-08-17T21:18:10.043Z,99684.72
2022-08-17T21:20:56.925Z,99689.78
2022-08-17T21:24:00.940Z,99695.63
2022-08-17T21:26:50.068Z,99686.81
2022-08-17T21:29:32.592Z,99681.88
2022-08-17T21:32:03.028Z,99672.75
2022-08-17T21:34:43.133Z,99669.66
2022-08-17T21:37:18.655Z,99670.03
2022-08-17T21:39:53.492Z,99660.41
2022-08-17T21:42:26.347Z,99656.84
2022-08-17T21:45:15.971Z,99653.09
2022-08-17T21:47:52.485Z,99664.78
2022-08-17T21:50:24.085Z,99670.66
2022-08-17T21:52:55.703Z,99669.50
2022-08-17T21:55:30.455Z,99683.03
2022-08-17T21:58:14.313Z,99676.09
2022-08-17T22:00:44.242Z,99689.44
2022-08-17T22:03:23.712Z,99692.44
2022-08-17T22:05:51.246Z,99691.91
2022-08-17T22:08:20.897Z,99692.91
2022-08-17T22:10:50.578Z,99700.16
2022-08-17T22:13:17.600Z,99680.31
2022-08-17T22:15:50.965Z,99690.66
2022-08-17T22:18:22.865Z,99686.69
2022-08-17T22:20:56.211Z,99689.97
2022-08-17T22:23:55.693Z,99700.50
2022-08-17T22:26:25.519Z,99707.06
2022-08-17T22:28:56.405Z,99704.28
2022-08-17T22:31:24.539Z,99704.66
2022-08-17T22:34:01.313Z,99716.31
2022-08-17T22:36:38.968Z,99719.28
2022-08-17T22:39:11.051Z,99711.25
2022-08-17T22:41:51.774Z,99716.78
2022-08-17T22:44:31.620Z,99711.34
2022-08-17T22:47:16.184Z,99717.84
2022-08-17T22:49:53.873Z,99717.72
2022-08-17T22:52:33.020Z,99721.13
2022-08-17T22:55:32.346Z,99731.41
2022-08-17T22:58:18.836Z,99720.88
2022-08-17T23:00:48.490Z,99729.25
2022-08-17T23:03:24.548Z,99736.25
2022-08-17T23:06:08.046Z,99735.41
2022-08-17T23:08:43.564Z,99739.03
2022-08-17T23:11:09.999Z,99735.88
2022-08-17T23:13:37.471Z,99741.78
2022-08-17T23:16:04.177Z,99734.03
2022-08-17T23:18:30.615Z,99735.72
2022-08-17T23:20:57.104Z,99740.63
2022-08-17T23:23:24.025Z,99729.75
2022-08-17T23:25:50.658Z,99737.19
2022-08-17T23:28:17.095Z,99736.91
2022-08-17T23:30:44.689Z,99747.34
2022-08-17T23:33:21.202Z,99753.09
2022-08-17T23:35:47.629Z,99758.34
2022-08-17T23:38:14.090Z,99765.94
2022-08-17T23:40:40.716Z,99771.22
2022-08-17T23:43:23.798Z,99766.06
2022-08-17T23:45:54.036Z,99767.78
2022-08-17T23:48:28.562Z,99765.22
2022-08-17T23:51:09.561Z,99756.38
2022-08-17T23:53:40.074Z,99746.22
2022-08-17T23:56:09.682Z,99753.06
2022-08-17T23:58:38.625Z,99758.19
